Terminal Aerodrome Forecast
Issued by NWS Billings, MT

Home | Current Version | Previous Version | Text Only | Print | Product List | Glossary On
Versions: 1 2 3 4 5 6 7 8 9 10 11 12 13 14 15 16 17 18 19 20 21 22 23 24 25 26 27 28 29 30 31
000
FTUS45 KBYZ 261144 CCA
TAFMLS
TAF COR
KMLS 261144Z 2612/2712 VRB03KT 1/4SM FG BKN001
     FM261500 15006KT P6SM BKN100
     FM262200 15008KT P6SM VCSH SCT050 BKN100
     FM270400 13006KT P6SM SCT050 BKN100=

USA.gov is the U.S. government's official web portal to all federal, state and local government web resources and services.